Time;durP1;ratioP1;P1;durP2;ratioP2;P2;SDS_P1;SDS_P2;PMS_P1;PMS_P2;Temp;Humidity;BMP_temperature;BMP_pressure;BME280_temperature;BME280_humidity;BME280_pressure;Samples;Min_cycle;Max_cycle;Signal;HPM_P1;HPM_P2
2021/12/05 00:19:07;;;;;;;3.90;3.20;;;8.50;57.00;;;;;;5059609;28;20449;-86
2021/12/05 00:21:41;;;;;;;6.43;4.30;;;8.50;57.20;;;;;;5057679;28;20881;-86
2021/12/05 00:24:11;;;;;;;4.80;2.50;;;8.30;57.20;;;;;;5076007;28;20451;-86
2021/12/05 00:26:39;;;;;;;3.03;2.73;;;8.30;57.30;;;;;;5049750;28;20484;-87
2021/12/05 00:29:16;;;;;;;2.13;1.93;;;8.30;57.30;;;;;;5057104;28;20452;-86
2021/12/05 00:31:57;;;;;;;9.67;3.23;;;8.20;57.40;;;;;;5062850;28;20997;-86
2021/12/05 00:34:49;;;;;;;9.17;3.10;;;8.00;57.70;;;;;;5056380;28;20888;-86
2021/12/05 00:40:41;;;;;;;2.07;1.87;;;8.20;57.70;;;;;;5051780;28;20443;-86
2021/12/05 00:46:14;;;;;;;2.57;2.27;;;8.20;57.10;;;;;;5058721;28;20501;-86
2021/12/05 00:49:04;;;;;;;3.93;2.43;;;7.90;57.50;;;;;;5060699;28;20542;-86
2021/12/05 00:52:07;;;;;;;6.37;2.30;;;7.80;58.20;;;;;;5041986;28;20473;-87
2021/12/05 00:55:07;;;;;;;5.50;2.40;;;7.70;58.10;;;;;;5060550;28;20500;-86
2021/12/05 00:57:47;;;;;;;2.60;2.20;;;7.90;57.90;;;;;;5045367;28;20466;-86
2021/12/05 01:00:34;;;;;;;4.20;1.83;;;8.10;57.80;;;;;;5053496;28;20491;-86
2021/12/05 01:03:19;;;;;;;3.20;1.83;;;8.20;57.70;;;;;;5055676;28;20480;-86
2021/12/05 01:14:30;;;;;;;8.50;2.37;;;8.40;57.00;;;;;;5015164;28;20856;-86
2021/12/05 01:16:57;;;;;;;2.83;2.10;;;8.40;57.10;;;;;;5062965;28;20479;-86
2021/12/05 01:19:25;;;;;;;4.90;2.43;;;8.30;57.00;;;;;;5052905;28;20971;-88
2021/12/05 01:21:58;;;;;;;1.87;1.50;;;8.20;55.80;;;;;;5076219;28;20803;-87
2021/12/05 01:24:37;;;;;;;6.90;1.60;;;8.10;56.50;;;;;;5043833;28;20818;-86
2021/12/05 01:27:12;;;;;;;3.43;2.13;;;8.10;56.90;;;;;;5073878;28;20503;-86
2021/12/05 01:29:46;;;;;;;1.30;1.20;;;8.00;56.90;;;;;;5059191;28;21021;-86
2021/12/05 01:32:22;;;;;;;12.03;2.03;;;8.00;57.10;;;;;;5072741;28;20471;-87
2021/12/05 01:35:00;;;;;;;4.70;2.07;;;7.80;57.30;;;;;;5057893;28;20466;-86
2021/12/05 01:37:51;;;;;;;3.43;1.60;;;7.60;57.60;;;;;;5078103;28;20488;-86
2021/12/05 01:40:42;;;;;;;2.03;1.90;;;7.60;58.00;;;;;;5040654;28;20459;-87
2021/12/05 01:46:33;;;;;;;2.90;1.83;;;7.60;58.70;;;;;;5041747;28;20499;-86
2021/12/05 01:54:54;;;;;;;1.70;1.57;;;7.60;58.80;;;;;;5046619;28;20540;-87
2021/12/05 01:57:44;;;;;;;4.50;2.03;;;7.50;59.10;;;;;;5042959;28;20472;-85
2021/12/05 02:08:56;;;;;;;4.50;1.80;;;7.60;58.80;;;;;;5067008;28;20467;-85
2021/12/05 02:11:47;;;;;;;6.47;1.40;;;7.50;59.40;;;;;;5042563;28;20464;-86
2021/12/05 02:34:03;;;;;;;1.70;1.60;;;7.60;59.50;;;;;;5034828;28;20493;-87
2021/12/05 02:39:38;;;;;;;6.00;1.57;;;7.60;58.60;;;;;;5056996;28;20440;-85
2021/12/05 02:42:13;;;;;;;2.60;1.63;;;7.70;59.30;;;;;;5057198;28;20584;-87
2021/12/05 02:44:41;;;;;;;5.20;1.60;;;7.80;58.90;;;;;;5038656;28;20459;-85
2021/12/05 02:47:12;;;;;;;1.30;1.20;;;7.70;59.30;;;;;;5040219;28;20471;-87
2021/12/05 02:49:43;;;;;;;8.13;1.70;;;7.40;59.30;;;;;;5080820;28;20448;-87
2021/12/05 02:52:16;;;;;;;3.87;1.40;;;7.40;60.30;;;;;;5080342;28;20525;-86
2021/12/05 02:54:50;;;;;;;5.60;2.30;;;7.70;60.10;;;;;;5066578;28;20454;-86
2021/12/05 02:57:30;;;;;;;6.20;1.77;;;7.70;59.80;;;;;;5061145;28;20478;-86
2021/12/05 02:59:59;;;;;;;6.00;1.87;;;7.60;59.70;;;;;;5063139;28;20559;-86
2021/12/05 03:02:37;;;;;;;9.60;2.17;;;7.60;59.90;;;;;;5045922;28;20453;-88
2021/12/05 03:05:09;;;;;;;2.87;1.53;;;7.60;59.90;;;;;;5050865;28;20439;-87
2021/12/05 03:07:39;;;;;;;2.70;2.47;;;7.70;60.00;;;;;;5078815;28;20480;-85
2021/12/05 03:10:14;;;;;;;2.40;1.63;;;7.70;59.80;;;;;;5048735;28;20467;-86
2021/12/05 03:12:43;;;;;;;2.70;1.27;;;7.80;59.90;;;;;;5062429;28;20501;-87
2021/12/05 03:15:13;;;;;;;3.47;1.47;;;7.60;59.60;;;;;;5059455;28;20456;-86
2021/12/05 03:17:41;;;;;;;3.83;1.67;;;7.60;59.80;;;;;;5066181;28;20555;-86
2021/12/05 03:20:11;;;;;;;2.33;1.40;;;7.60;60.20;;;;;;5055639;28;20520;-86
2021/12/05 03:22:38;;;;;;;1.40;1.30;;;7.80;59.70;;;;;;5067436;28;20467;-86
2021/12/05 03:25:10;;;;;;;1.70;1.60;;;7.60;59.40;;;;;;5064486;28;20459;-86
2021/12/05 03:27:39;;;;;;;5.37;1.53;;;7.70;59.70;;;;;;5050232;28;20518;-87
2021/12/05 03:30:08;;;;;;;1.77;1.67;;;7.60;59.50;;;;;;5082147;28;20440;-86
2021/12/05 03:32:36;;;;;;;2.20;1.50;;;7.50;60.00;;;;;;5065102;28;21040;-87
2021/12/05 03:35:07;;;;;;;1.93;1.30;;;7.60;59.60;;;;;;5048133;28;20496;-86
2021/12/05 03:37:34;;;;;;;2.60;1.10;;;7.60;59.60;;;;;;5064399;28;20483;-86
2021/12/05 03:40:05;;;;;;;2.43;1.53;;;7.60;59.80;;;;;;5057037;28;20447;-86
2021/12/05 03:42:35;;;;;;;2.27;1.50;;;7.50;59.70;;;;;;5043951;28;20815;-86
2021/12/05 03:45:09;;;;;;;5.60;1.77;;;7.50;60.20;;;;;;5060448;28;20452;-86
2021/12/05 03:47:37;;;;;;;1.73;1.40;;;7.50;59.80;;;;;;5061419;28;20562;-86
2021/12/05 03:50:06;;;;;;;3.87;2.00;;;7.60;59.30;;;;;;5030931;28;20447;-87
2021/12/05 03:52:33;;;;;;;3.00;1.73;;;7.70;59.20;;;;;;5064070;28;20472;-86
2021/12/05 03:55:01;;;;;;;10.33;1.90;;;7.60;58.90;;;;;;5063493;28;20488;-86
2021/12/05 03:57:28;;;;;;;3.77;1.30;;;7.40;59.20;;;;;;5069004;28;21372;-85
2021/12/05 03:59:59;;;;;;;2.50;1.70;;;7.40;60.00;;;;;;5043974;28;20449;-86
2021/12/05 04:02:26;;;;;;;3.87;1.50;;;7.40;60.00;;;;;;5049984;28;20454;-86
2021/12/05 04:04:53;;;;;;;1.77;1.30;;;7.50;59.90;;;;;;5064862;28;20452;-86
2021/12/05 04:07:20;;;;;;;2.97;1.63;;;7.60;59.60;;;;;;5061600;28;20484;-86
2021/12/05 04:09:49;;;;;;;1.37;1.23;;;7.50;59.70;;;;;;5052662;28;20797;-86
2021/12/05 04:12:17;;;;;;;3.73;1.67;;;7.40;60.20;;;;;;5051167;28;20461;-87
2021/12/05 04:14:48;;;;;;;8.17;2.13;;;7.40;60.50;;;;;;5047268;28;20477;-86
2021/12/05 04:17:19;;;;;;;2.13;1.40;;;7.50;59.80;;;;;;5060206;28;20474;-86
2021/12/05 04:19:46;;;;;;;2.43;1.40;;;7.60;59.30;;;;;;5042868;28;20519;-86
2021/12/05 04:22:13;;;;;;;4.50;1.40;;;7.60;59.00;;;;;;5065923;28;20450;-86
2021/12/05 04:24:42;;;;;;;4.43;2.57;;;7.60;59.50;;;;;;5037523;28;20969;-88
2021/12/05 04:27:10;;;;;;;1.40;1.30;;;7.50;59.70;;;;;;5074843;28;20470;-85
2021/12/05 04:29:38;;;;;;;9.17;2.37;;;7.60;59.10;;;;;;5051627;28;20479;-86
2021/12/05 04:32:07;;;;;;;3.73;1.70;;;7.30;59.10;;;;;;5071259;28;20473;-86
2021/12/05 04:34:36;;;;;;;1.20;1.07;;;7.30;59.70;;;;;;5073208;28;20453;-86
2021/12/05 04:37:04;;;;;;;5.57;1.73;;;7.20;60.30;;;;;;5065952;28;20475;-86
2021/12/05 04:39:34;;;;;;;3.63;1.30;;;7.10;60.60;;;;;;5071447;28;20459;-87
2021/12/05 04:42:01;;;;;;;2.40;1.30;;;7.10;60.50;;;;;;5045917;28;22155;-86
2021/12/05 04:44:28;;;;;;;5.23;1.73;;;7.20;60.60;;;;;;5051609;28;20476;-86
2021/12/05 04:47:00;;;;;;;1.57;1.43;;;7.30;60.30;;;;;;5051096;28;20519;-86
2021/12/05 04:49:29;;;;;;;2.20;1.40;;;7.30;60.40;;;;;;5044636;28;20444;-86
2021/12/05 04:51:57;;;;;;;3.30;1.53;;;7.20;60.80;;;;;;5064228;28;20477;-86
2021/12/05 04:54:25;;;;;;;1.57;1.40;;;7.20;60.30;;;;;;5032534;28;20444;-86
2021/12/05 04:56:52;;;;;;;2.13;1.53;;;7.20;60.80;;;;;;5066362;28;20486;-86
2021/12/05 04:59:29;;;;;;;4.97;1.50;;;7.20;60.70;;;;;;5053406;28;20451;-86
2021/12/05 05:01:58;;;;;;;4.50;1.80;;;7.10;61.00;;;;;;5055970;28;20497;-86
2021/12/05 05:04:27;;;;;;;4.57;1.87;;;7.20;61.10;;;;;;5055321;28;20510;-86
2021/12/05 05:06:56;;;;;;;8.20;1.40;;;7.20;61.00;;;;;;5060288;28;20559;-86
2021/12/05 05:09:25;;;;;;;5.03;1.63;;;7.30;60.70;;;;;;5065568;28;21207;-86
2021/12/05 05:11:52;;;;;;;2.60;2.40;;;7.40;60.50;;;;;;5059279;28;21008;-85
2021/12/05 05:14:19;;;;;;;3.73;2.70;;;7.40;59.50;;;;;;5042459;28;20448;-86
2021/12/05 05:16:52;;;;;;;2.90;2.50;;;7.40;60.10;;;;;;5084050;28;21038;-86
2021/12/05 05:19:21;;;;;;;1.53;1.33;;;7.50;59.80;;;;;;5077343;28;20447;-86
2021/12/05 05:21:55;;;;;;;3.40;2.37;;;7.10;59.70;;;;;;5059913;28;20544;-86
2021/12/05 05:24:46;;;;;;;4.53;2.03;;;7.10;60.30;;;;;;5062504;28;20476;-86
2021/12/05 05:44:01;;;;;;;4.60;1.60;;;7.20;59.00;;;;;;5089579;28;20447;-86
2021/12/05 05:46:39;;;;;;;5.03;1.87;;;7.10;59.10;;;;;;5071728;28;20570;-86
2021/12/05 05:49:14;;;;;;;1.87;1.67;;;7.20;59.50;;;;;;5057359;28;20463;-86
2021/12/05 05:51:42;;;;;;;8.13;1.97;;;7.10;59.40;;;;;;5047617;28;20470;-87
2021/12/05 05:54:09;;;;;;;2.70;1.90;;;7.00;60.00;;;;;;5065924;28;20453;-86
2021/12/05 05:56:37;;;;;;;5.23;1.73;;;7.00;59.80;;;;;;5049547;28;20504;-87
2021/12/05 05:59:12;;;;;;;5.40;1.80;;;7.00;59.40;;;;;;5046752;28;20466;-86
2021/12/05 06:01:58;;;;;;;3.17;1.40;;;7.10;59.50;;;;;;5067354;28;20544;-86
2021/12/05 06:04:25;;;;;;;4.17;1.73;;;7.20;59.40;;;;;;5057230;28;20468;-86
2021/12/05 06:06:52;;;;;;;2.50;1.40;;;7.30;59.10;;;;;;5046852;28;20837;-86
2021/12/05 06:09:19;;;;;;;2.27;1.63;;;7.40;58.90;;;;;;5060366;28;20938;-85
2021/12/05 06:11:46;;;;;;;11.50;2.17;;;7.40;58.80;;;;;;5072417;28;20450;-86
2021/12/05 06:14:14;;;;;;;10.07;2.27;;;7.20;59.20;;;;;;5078096;28;20438;-86
2021/12/05 06:16:41;;;;;;;2.83;1.87;;;7.20;59.50;;;;;;5063047;28;20490;-86
2021/12/05 06:19:09;;;;;;;14.00;1.83;;;7.20;59.70;;;;;;5067950;28;20971;-86
2021/12/05 06:21:35;;;;;;;4.80;2.30;;;7.20;59.70;;;;;;5076602;28;20459;-86
2021/12/05 06:24:03;;;;;;;3.00;1.50;;;7.30;59.60;;;;;;5079091;28;20834;-86
2021/12/05 06:26:30;;;;;;;6.40;2.33;;;7.30;59.70;;;;;;5072656;28;20520;-86
2021/12/05 06:29:06;;;;;;;7.63;2.67;;;7.30;59.30;;;;;;5065729;28;20795;-86
2021/12/05 06:31:51;;;;;;;3.63;2.30;;;7.20;59.40;;;;;;5089686;28;20445;-86
2021/12/05 06:37:31;;;;;;;6.00;2.23;;;7.10;59.90;;;;;;5079476;28;20978;-85
2021/12/05 06:40:20;;;;;;;2.63;1.40;;;7.30;59.60;;;;;;5083923;28;20552;-86
2021/12/05 06:42:53;;;;;;;3.70;2.30;;;7.30;59.10;;;;;;5041900;28;20465;-86
2021/12/05 06:48:07;;;;;;;2.50;1.67;;;7.40;58.80;;;;;;5065264;28;21127;-86
2021/12/05 06:50:34;;;;;;;2.43;1.80;;;7.50;58.70;;;;;;5062686;28;20455;-85
2021/12/05 06:53:01;;;;;;;4.20;2.20;;;7.60;58.20;;;;;;5049091;28;20477;-85
2021/12/05 06:55:28;;;;;;;10.73;2.83;;;7.70;58.10;;;;;;5084446;28;20454;-86
2021/12/05 06:57:55;;;;;;;6.07;3.70;;;7.90;57.70;;;;;;5056223;28;20774;-86
2021/12/05 07:00:24;;;;;;;4.83;3.03;;;8.00;57.40;;;;;;5068407;28;20455;-86
2021/12/05 07:02:51;;;;;;;3.97;2.90;;;7.80;56.60;;;;;;5073566;28;20447;-86
2021/12/05 07:08:05;;;;;;;3.47;2.10;;;7.90;56.80;;;;;;5034458;28;20461;-86
2021/12/05 07:10:38;;;;;;;2.10;1.53;;;7.90;56.50;;;;;;5048137;28;20969;-87
2021/12/05 07:15:50;;;;;;;6.87;2.00;;;7.60;56.60;;;;;;5087360;28;20966;-88
2021/12/05 07:21:25;;;;;;;3.87;2.10;;;7.70;56.70;;;;;;5053421;28;20436;-87
2021/12/05 07:24:01;;;;;;;3.77;2.40;;;7.70;56.50;;;;;;5059806;28;20459;-87
2021/12/05 07:26:43;;;;;;;2.60;2.00;;;7.50;56.70;;;;;;5092046;28;20483;-87
2021/12/05 07:40:23;;;;;;;4.20;2.17;;;7.00;59.40;;;;;;5071328;28;21040;-87
2021/12/05 07:42:51;;;;;;;4.73;3.10;;;6.90;59.50;;;;;;5071432;28;20432;-87
2021/12/05 07:45:23;;;;;;;2.47;2.27;;;6.90;59.40;;;;;;5071163;28;20463;-87
2021/12/05 07:47:52;;;;;;;3.57;2.30;;;6.90;59.40;;;;;;5079569;28;20444;-87
2021/12/05 07:50:26;;;;;;;8.43;2.40;;;7.00;59.40;;;;;;5080404;28;20463;-87
2021/12/05 07:53:03;;;;;;;5.03;2.23;;;7.10;59.00;;;;;;5076148;28;20464;-87
2021/12/05 07:55:37;;;;;;;3.30;2.27;;;7.10;58.90;;;;;;5077506;28;20452;-87
2021/12/05 07:58:13;;;;;;;2.90;2.17;;;7.10;58.70;;;;;;5089437;28;20444;-87
2021/12/05 08:00:52;;;;;;;2.63;1.87;;;7.20;58.60;;;;;;5033750;28;20547;-86
2021/12/05 08:14:33;;;;;;;10.50;2.87;;;7.40;58.50;;;;;;5061814;28;21046;-86
2021/12/05 08:17:02;;;;;;;13.03;9.47;;;7.40;58.50;;;;;;5076993;28;20979;-87
2021/12/05 08:19:29;;;;;;;11.43;5.87;;;7.40;58.60;;;;;;5055683;28;20460;-86
2021/12/05 08:21:56;;;;;;;13.50;5.10;;;7.60;58.40;;;;;;5092109;28;20491;-87
2021/12/05 08:24:28;;;;;;;18.03;5.73;;;7.40;58.80;;;;;;5077322;28;20534;-87
2021/12/05 08:26:55;;;;;;;19.73;7.60;;;7.40;58.60;;;;;;5068772;28;20511;-87
2021/12/05 08:29:31;;;;;;;9.63;4.60;;;7.50;58.50;;;;;;5067563;28;20455;-86
2021/12/05 08:32:16;;;;;;;7.87;3.87;;;7.40;58.80;;;;;;5067512;28;20466;-87
2021/12/05 08:34:58;;;;;;;7.60;4.90;;;7.50;58.80;;;;;;5089788;28;20444;-86
2021/12/05 08:46:18;;;;;;;4.63;2.37;;;7.00;60.40;;;;;;5059012;28;20535;-87
2021/12/05 09:22:45;;;;;;;4.80;3.30;;;8.30;58.80;;;;;;5069463;28;20441;-86
2021/12/05 09:30:55;;;;;;;2.57;2.13;;;8.70;58.20;;;;;;5074943;28;20439;-87
2021/12/05 10:06:47;;;;;;;3.50;2.10;;;8.80;57.40;;;;;;5081629;28;20455;-86
2021/12/05 10:09:29;;;;;;;4.00;2.00;;;8.80;57.20;;;;;;5096943;28;20449;-87
2021/12/05 10:12:12;;;;;;;2.73;2.03;;;8.70;57.10;;;;;;5051025;28;20456;-87
2021/12/05 10:14:49;;;;;;;7.40;1.90;;;8.80;57.30;;;;;;5079103;28;20484;-87
2021/12/05 10:26:04;;;;;;;1.47;1.37;;;9.10;57.00;;;;;;5068672;28;20940;-86
2021/12/05 10:35:05;;;;;;;3.60;2.30;;;9.30;56.40;;;;;;5043280;28;20466;-86
2021/12/05 10:37:45;;;;;;;4.77;2.03;;;9.30;56.20;;;;;;5085821;28;20474;-87
2021/12/05 10:40:19;;;;;;;2.67;2.30;;;9.40;56.40;;;;;;5078756;28;21027;-86
2021/12/05 10:42:49;;;;;;;4.03;1.43;;;9.50;56.30;;;;;;5061757;28;20443;-86
2021/12/05 10:45:31;;;;;;;1.57;1.10;;;9.50;56.10;;;;;;5066039;28;20541;-86
2021/12/05 10:48:03;;;;;;;1.60;1.20;;;9.40;55.70;;;;;;5058328;28;20453;-86
2021/12/05 10:50:38;;;;;;;2.07;1.27;;;9.40;55.90;;;;;;5033594;28;20459;-86
2021/12/05 10:53:23;;;;;;;1.83;1.70;;;9.40;55.80;;;;;;5067224;28;20882;-87
2021/12/05 10:55:57;;;;;;;2.37;1.40;;;9.40;55.20;;;;;;5052995;28;20553;-86
2021/12/05 10:58:29;;;;;;;2.70;1.30;;;9.10;55.30;;;;;;5076988;28;20447;-86
2021/12/05 11:01:06;;;;;;;3.00;2.30;;;9.00;56.10;;;;;;5057566;28;20542;-86
2021/12/05 11:03:34;;;;;;;3.83;1.87;;;9.20;56.30;;;;;;5088041;28;20425;-86
2021/12/05 11:06:01;;;;;;;3.83;2.00;;;9.10;56.00;;;;;;5086285;28;20503;-87
2021/12/05 11:08:35;;;;;;;3.50;2.10;;;9.20;55.90;;;;;;5068894;28;20452;-86
2021/12/05 11:11:12;;;;;;;2.80;1.70;;;9.40;56.10;;;;;;5074495;28;20458;-87
2021/12/05 11:13:43;;;;;;;2.30;2.10;;;9.60;55.80;;;;;;5069237;28;20468;-86
2021/12/05 11:16:32;;;;;;;1.30;1.07;;;9.70;55.50;;;;;;5072691;28;20464;-87
2021/12/05 11:18:59;;;;;;;2.00;1.43;;;9.60;54.20;;;;;;5079243;28;21047;-87
2021/12/05 11:21:31;;;;;;;2.40;1.33;;;9.80;54.70;;;;;;5053846;28;20463;-87
2021/12/05 11:24:12;;;;;;;1.27;1.17;;;9.40;55.10;;;;;;5070653;28;20469;-86
2021/12/05 11:26:41;;;;;;;1.20;1.07;;;9.50;55.90;;;;;;5049061;28;20504;-87
2021/12/05 11:29:09;;;;;;;3.43;1.30;;;9.20;55.80;;;;;;5095008;28;20543;-86
2021/12/05 11:31:37;;;;;;;9.20;1.63;;;9.30;56.40;;;;;;5074241;28;20455;-87
2021/12/05 11:34:05;;;;;;;3.33;1.17;;;9.50;55.70;;;;;;5071577;28;20480;-85
2021/12/05 11:36:35;;;;;;;2.30;1.10;;;9.60;55.60;;;;;;5054842;28;20469;-87
2021/12/05 11:39:22;;;;;;;1.97;0.90;;;9.60;54.10;;;;;;5083119;28;20527;-86
2021/12/05 11:41:49;;;;;;;5.07;1.40;;;9.50;53.90;;;;;;5066180;28;20452;-87
2021/12/05 11:44:19;;;;;;;2.73;1.17;;;9.60;55.00;;;;;;5047827;28;20452;-87
2021/12/05 11:46:47;;;;;;;2.17;0.90;;;9.80;54.50;;;;;;5063445;28;20826;-86
2021/12/05 11:49:20;;;;;;;4.80;0.90;;;9.80;54.10;;;;;;5078193;28;20463;-87
2021/12/05 11:51:52;;;;;;;2.57;1.27;;;9.80;53.90;;;;;;5044964;28;20509;-87
2021/12/05 11:54:24;;;;;;;3.37;1.37;;;9.90;53.80;;;;;;5056400;28;20552;-87
2021/12/05 11:56:55;;;;;;;1.30;1.20;;;9.90;54.00;;;;;;5069153;28;20503;-87
2021/12/05 11:59:26;;;;;;;1.53;1.40;;;10.10;53.20;;;;;;5072522;28;20456;-87
2021/12/05 12:02:03;;;;;;;1.20;1.00;;;10.20;52.50;;;;;;5066941;28;20951;-87
2021/12/05 12:04:48;;;;;;;1.17;1.07;;;9.60;51.80;;;;;;5061732;28;20448;-87
2021/12/05 12:07:24;;;;;;;1.63;1.20;;;9.60;53.60;;;;;;5054251;28;20478;-87
2021/12/05 12:09:55;;;;;;;4.70;1.23;;;9.70;53.30;;;;;;5089298;28;20461;-86
2021/12/05 12:12:22;;;;;;;3.47;1.63;;;9.90;53.20;;;;;;5058019;28;20440;-86
2021/12/05 12:14:49;;;;;;;1.60;0.90;;;9.90;53.10;;;;;;5049893;28;20473;-86
2021/12/05 12:17:16;;;;;;;3.53;1.93;;;10.10;52.50;;;;;;5061657;28;20468;-87
2021/12/05 12:19:45;;;;;;;1.47;1.17;;;9.90;52.60;;;;;;5065266;28;20494;-87
2021/12/05 12:22:13;;;;;;;2.77;2.00;;;9.90;53.10;;;;;;5057522;28;20459;-87
2021/12/05 12:24:40;;;;;;;1.70;1.30;;;10.00;52.30;;;;;;5070229;28;20450;-88
2021/12/05 12:27:12;;;;;;;3.33;1.53;;;10.20;51.70;;;;;;5076825;28;20987;-87
2021/12/05 12:29:39;;;;;;;7.90;1.40;;;10.20;51.60;;;;;;5060917;28;20444;-87
2021/12/05 12:32:12;;;;;;;1.43;1.33;;;10.30;51.80;;;;;;5067036;28;20460;-87
2021/12/05 12:34:41;;;;;;;1.43;1.10;;;10.40;52.20;;;;;;5067497;28;20483;-87
2021/12/05 12:37:12;;;;;;;1.40;1.30;;;10.40;51.30;;;;;;5044260;28;20512;-87
2021/12/05 12:39:41;;;;;;;2.23;1.17;;;10.50;50.80;;;;;;5069030;28;20487;-86
2021/12/05 12:42:17;;;;;;;2.50;1.10;;;10.30;49.80;;;;;;5066019;28;20444;-87
2021/12/05 12:45:00;;;;;;;4.87;2.53;;;10.40;50.50;;;;;;5061543;28;20450;-87
2021/12/05 12:47:34;;;;;;;2.23;1.00;;;10.30;50.40;;;;;;5054143;28;20546;-85
2021/12/05 12:50:34;;;;;;;2.73;2.20;;;10.30;49.80;;;;;;5063937;28;20840;-86
2021/12/05 12:53:09;;;;;;;4.87;1.13;;;10.20;51.00;;;;;;5064793;28;20545;-87
2021/12/05 12:55:39;;;;;;;4.70;1.83;;;10.40;50.90;;;;;;5064977;28;20475;-88
2021/12/05 12:58:10;;;;;;;4.37;1.67;;;10.60;51.20;;;;;;5090772;28;20445;-87
2021/12/05 13:00:43;;;;;;;4.80;1.57;;;10.50;49.30;;;;;;5076947;28;20448;-87
2021/12/05 13:03:27;;;;;;;1.90;1.70;;;10.60;49.80;;;;;;5049560;28;20843;-87
2021/12/05 13:11:48;;;;;;;1.50;1.40;;;10.80;49.30;;;;;;5061654;28;20460;-87
2021/12/05 13:14:18;;;;;;;6.00;1.13;;;10.90;50.30;;;;;;5079760;28;21000;-87
2021/12/05 13:16:46;;;;;;;92.73;27.53;;;11.00;50.90;;;;;;5072927;28;20467;-86
2021/12/05 13:19:19;;;;;;;11.87;6.30;;;10.90;49.40;;;;;;5050038;28;20547;-87
2021/12/05 13:21:49;;;;;;;4.37;2.40;;;10.90;50.00;;;;;;5043258;28;20871;-87
2021/12/05 13:24:25;;;;;;;16.87;5.50;;;10.90;50.60;;;;;;5064685;28;20491;-87
2021/12/05 13:27:00;;;;;;;17.00;6.20;;;10.90;50.90;;;;;;5076239;28;20456;-88
2021/12/05 13:29:30;;;;;;;8.67;4.93;;;11.00;51.00;;;;;;5053833;28;20449;-87
2021/12/05 13:32:06;;;;;;;4.80;3.50;;;10.80;51.40;;;;;;5029531;28;20818;-87
2021/12/05 13:34:43;;;;;;;26.83;10.37;;;10.70;51.70;;;;;;5060643;28;20555;-87
2021/12/05 13:37:31;;;;;;;3.30;2.30;;;10.30;52.10;;;;;;5063699;28;20554;-87
2021/12/05 13:40:13;;;;;;;7.03;3.40;;;10.20;52.70;;;;;;5054479;28;20452;-86
2021/12/05 13:42:47;;;;;;;26.77;8.50;;;10.20;52.90;;;;;;5064160;28;21147;-87
2021/12/05 13:45:23;;;;;;;28.87;12.30;;;10.30;53.30;;;;;;5083889;28;20447;-87
2021/12/05 13:48:15;;;;;;;31.00;10.47;;;10.40;53.30;;;;;;5035899;28;20558;-87
2021/12/05 13:50:45;;;;;;;14.87;7.30;;;10.30;53.40;;;;;;5076025;28;20548;-87
2021/12/05 13:53:22;;;;;;;13.43;6.53;;;10.40;53.40;;;;;;5035155;28;21341;-87
2021/12/05 13:55:59;;;;;;;5.27;3.20;;;10.40;53.80;;;;;;5071610;28;20477;-85
2021/12/05 13:58:29;;;;;;;6.27;3.80;;;10.30;53.80;;;;;;5075173;28;20460;-86
2021/12/05 14:01:04;;;;;;;3.30;2.60;;;10.30;54.10;;;;;;5065737;28;21049;-87
2021/12/05 14:03:52;;;;;;;3.83;2.73;;;10.00;54.90;;;;;;5094607;28;20438;-87
2021/12/05 14:06:29;;;;;;;2.70;2.07;;;9.90;56.40;;;;;;5039850;28;20885;-86
2021/12/05 14:09:00;;;;;;;3.30;2.60;;;9.90;56.40;;;;;;5057148;28;20462;-87
2021/12/05 14:11:28;;;;;;;7.67;4.30;;;9.90;56.90;;;;;;5066480;28;20464;-87
2021/12/05 14:13:55;;;;;;;9.53;2.50;;;9.80;57.10;;;;;;5051693;28;20464;-87
2021/12/05 14:16:31;;;;;;;6.63;2.43;;;9.80;56.90;;;;;;5077029;28;20498;-87
2021/12/05 14:18:58;;;;;;;5.20;1.70;;;9.80;56.50;;;;;;5041334;28;20465;-86
2021/12/05 14:21:26;;;;;;;6.03;1.40;;;9.70;56.70;;;;;;5053175;28;20993;-87
2021/12/05 14:23:57;;;;;;;1.90;0.97;;;9.50;56.80;;;;;;5039294;28;20515;-87
2021/12/05 14:26:27;;;;;;;1.10;1.00;;;9.40;57.70;;;;;;5054927;28;20475;-87
2021/12/05 14:28:56;;;;;;;1.10;1.00;;;9.20;58.30;;;;;;5073618;28;20522;-87
2021/12/05 14:31:27;;;;;;;1.37;1.27;;;9.00;59.10;;;;;;5058095;28;20436;-87
2021/12/05 14:33:55;;;;;;;3.70;2.67;;;9.00;59.50;;;;;;5016279;28;20829;-87
2021/12/05 14:36:29;;;;;;;1.60;1.40;;;9.10;59.20;;;;;;5055549;28;20457;-86
2021/12/05 14:39:08;;;;;;;2.90;2.03;;;9.20;58.60;;;;;;5073067;28;20452;-87
2021/12/05 14:41:37;;;;;;;1.13;0.93;;;9.20;57.80;;;;;;5045561;28;20463;-86
2021/12/05 14:44:05;;;;;;;1.10;0.97;;;8.90;58.50;;;;;;5049750;28;20439;-86
2021/12/05 14:46:33;;;;;;;11.70;4.47;;;8.80;59.30;;;;;;5079252;28;20859;-87
2021/12/05 14:49:03;;;;;;;12.10;6.00;;;8.80;60.20;;;;;;5070881;28;20969;-86
2021/12/05 14:51:35;;;;;;;10.47;8.03;;;8.90;59.40;;;;;;5047992;28;20901;-87
2021/12/05 14:54:04;;;;;;;1.70;1.50;;;9.00;59.20;;;;;;5058592;28;20449;-87
2021/12/05 14:56:32;;;;;;;1.50;1.40;;;9.10;59.30;;;;;;5059786;28;20472;-88
2021/12/05 14:59:06;;;;;;;2.10;1.20;;;9.10;59.20;;;;;;5067701;28;20485;-87
2021/12/05 15:01:36;;;;;;;2.47;1.53;;;9.20;59.00;;;;;;5069984;28;20454;-86
2021/12/05 15:04:05;;;;;;;9.87;2.20;;;9.30;58.90;;;;;;5050729;28;20457;-87
2021/12/05 15:06:37;;;;;;;12.60;7.43;;;9.40;58.90;;;;;;5079313;28;20478;-87
2021/12/05 15:09:07;;;;;;;8.77;5.70;;;9.60;58.30;;;;;;5075487;28;20458;-89
2021/12/05 15:11:35;;;;;;;7.43;4.90;;;9.70;58.30;;;;;;5059530;28;20463;-87
2021/12/05 15:14:06;;;;;;;17.80;7.30;;;9.80;58.50;;;;;;5066606;28;20464;-88
2021/12/05 15:16:35;;;;;;;9.43;5.67;;;9.90;58.20;;;;;;5078233;28;20504;-88
2021/12/05 15:19:02;;;;;;;13.60;6.70;;;9.80;57.70;;;;;;5065654;28;20465;-89
2021/12/05 15:21:42;;;;;;;17.47;7.83;;;9.80;57.70;;;;;;5064454;28;20979;-87
2021/12/05 15:24:13;;;;;;;20.13;8.50;;;9.80;57.80;;;;;;5062018;28;21095;-87
2021/12/05 15:26:40;;;;;;;12.47;7.10;;;9.70;57.90;;;;;;5071727;28;20474;-88
2021/12/05 15:29:07;;;;;;;8.73;4.47;;;9.80;57.80;;;;;;5080840;28;20505;-88
2021/12/05 15:31:39;;;;;;;4.03;3.63;;;9.80;57.70;;;;;;5066456;28;20471;-87
2021/12/05 15:34:29;;;;;;;2.20;2.03;;;9.80;57.80;;;;;;5056693;28;20452;-86
2021/12/05 15:36:58;;;;;;;6.77;2.20;;;9.70;57.60;;;;;;5064753;28;20479;-87
2021/12/05 15:39:30;;;;;;;2.60;1.90;;;9.70;58.00;;;;;;5041242;28;20452;-87
2021/12/05 15:41:58;;;;;;;2.43;1.53;;;9.50;57.90;;;;;;5062973;28;20456;-87
2021/12/05 15:44:39;;;;;;;3.00;2.10;;;9.50;57.80;;;;;;5050783;28;20462;-88
2021/12/05 15:47:14;;;;;;;5.63;4.10;;;9.50;58.00;;;;;;5054106;28;21047;-86
2021/12/05 15:49:59;;;;;;;7.40;3.80;;;9.30;58.20;;;;;;5067038;28;20468;-87
2021/12/05 15:52:33;;;;;;;6.87;4.60;;;9.40;58.40;;;;;;5075811;28;20456;-86
2021/12/05 15:55:00;;;;;;;7.13;5.77;;;9.50;58.60;;;;;;5074631;28;20471;-86
2021/12/05 15:57:32;;;;;;;14.60;8.83;;;9.60;58.50;;;;;;5051711;28;20483;-87
2021/12/05 16:00:11;;;;;;;11.53;7.50;;;9.60;57.80;;;;;;5049797;28;20467;-88
2021/12/05 16:02:41;;;;;;;10.70;5.30;;;9.50;57.90;;;;;;5042761;28;20460;-87
2021/12/05 16:05:20;;;;;;;7.30;4.03;;;9.50;57.90;;;;;;5076414;28;20449;-86
2021/12/05 16:07:48;;;;;;;13.93;9.83;;;9.50;57.80;;;;;;5072642;28;20480;-87
2021/12/05 16:10:20;;;;;;;14.43;8.13;;;9.60;58.10;;;;;;5072804;28;20463;-87
2021/12/05 16:12:48;;;;;;;16.33;9.87;;;9.60;58.30;;;;;;5065768;28;20488;-87
2021/12/05 16:15:17;;;;;;;14.00;8.60;;;9.60;58.10;;;;;;5066780;28;20488;-87
2021/12/05 16:17:55;;;;;;;3.63;3.23;;;9.60;57.90;;;;;;5047118;28;20476;-88
2021/12/05 16:20:26;;;;;;;8.87;4.60;;;9.60;57.80;;;;;;5066481;28;20455;-87
2021/12/05 16:23:10;;;;;;;11.03;6.70;;;9.60;57.90;;;;;;5049488;28;20461;-86
2021/12/05 16:25:40;;;;;;;5.87;4.67;;;9.50;57.60;;;;;;5057950;28;20462;-87
2021/12/05 16:28:12;;;;;;;10.37;4.00;;;9.40;57.80;;;;;;5055569;28;20472;-88
2021/12/05 16:30:42;;;;;;;7.30;4.07;;;9.20;57.90;;;;;;5039153;28;20448;-87
2021/12/05 16:33:12;;;;;;;4.00;3.57;;;9.30;58.20;;;;;;5058010;28;20894;-86
2021/12/05 16:35:41;;;;;;;5.87;3.93;;;9.40;58.20;;;;;;5074540;28;20479;-87
2021/12/05 16:38:24;;;;;;;5.73;4.97;;;9.50;58.20;;;;;;5068983;28;20945;-88
2021/12/05 16:40:56;;;;;;;5.80;4.77;;;9.50;58.00;;;;;;5066813;28;20468;-84
2021/12/05 16:43:23;;;;;;;4.93;4.53;;;9.50;58.00;;;;;;5062455;28;20959;-88
2021/12/05 16:45:56;;;;;;;5.00;4.33;;;9.50;57.90;;;;;;5059586;28;21212;-86
2021/12/05 16:48:25;;;;;;;5.10;3.90;;;9.40;57.90;;;;;;5040325;28;20482;-88
2021/12/05 16:50:52;;;;;;;7.97;6.10;;;9.40;57.70;;;;;;5056020;28;20455;-87
2021/12/05 16:53:32;;;;;;;7.90;5.80;;;9.40;57.80;;;;;;5043660;28;20445;-88
2021/12/05 16:56:00;;;;;;;11.00;8.30;;;9.30;57.50;;;;;;5057247;28;20476;-87
2021/12/05 16:58:27;;;;;;;8.30;6.00;;;9.20;57.70;;;;;;5061410;28;20442;-87
2021/12/05 17:00:55;;;;;;;10.00;8.50;;;9.20;58.10;;;;;;5029502;28;20461;-88
2021/12/05 17:03:26;;;;;;;13.97;9.57;;;9.20;58.20;;;;;;5076142;28;20964;-89
2021/12/05 17:05:59;;;;;;;11.57;8.60;;;9.20;58.00;;;;;;5047028;28;20473;-90
2021/12/05 17:08:28;;;;;;;10.83;7.90;;;9.20;57.90;;;;;;5037810;28;20456;-87
2021/12/05 17:10:58;;;;;;;15.13;8.90;;;9.20;57.70;;;;;;5060817;28;20839;-87